Holstein, IA (51025)

1:29 AM CST on December 13, 2017 (GMT -0600)
Holstein Ag Services, LLC | | Change Station
Active Advisory: Wind Advisory

Elev 1381 ft 42.50 °N, 95.54 °W | Updated 5 seconds ago

Partly Cloudy
Partly Cloudy
35.5 °F
Feels Like 27 °F
N
12.0
Wind Variable Wind from SSW
Gusts 18.0 mph

Today
High -- | Low -- °F
--% Chance of Precip.
Yesterday
High -- | Low -- °F
Precip. -- in
Pressure 29.58 in
Visibility 10.0 miles
Clouds Clear
Windchill 27 °F
Dew Point 35 °F
Humidity 95%
Rainfall 0.00 in
Snow Depth Not available.
7:43 AM 4:49 PM
Waning Crescent, 21% visible
METAR KCKP 130715Z AUTO 21005KT 10SM CLR 00/M04 A2958 RMK AO2 T00021045
Pressure 29.58 in
Visibility 10.0 miles
Clouds Clear
Windchill 27 °F
Dew Point 35 °F
Humidity 95%
Rainfall 0.00 in
Snow Depth Not available.
7:43 AM 4:49 PM
Waning Crescent, 21% visible
METAR KCKP 130715Z AUTO 21005KT 10SM CLR 00/M04 A2958 RMK AO2 T00021045

Get Your Daily Forecast Email!

Thanks for signing up!

Be on the lookout for a verification email in your inbox.

You'll start receiving severe weather alerts in your inbox..

×

10-Day Weather Forecast

Almanac

Astronomy

Dec. 13, 2017 Rise Set
Actual Time
Civil Twilight
Nautical Twilight
Astronomical Twilight
Moon
Length of Visible Light
Length of Day
Tomorrow will be .
, % of the Moon is Illuminated

Today's Extremes

State Highs State Lows

Community

WunderPhotos

Category 6

Welcome to Category 6. This is the collective home for Weather Underground's featured writeups by Dr. Jeff Masters (right), Bob Henson (left), Chris Burt, and other regular contributors.

Nearby

Air Quality

  Air Quality AQ Index Pollutant
Not available.

Snow Depth

Station Depth Elevation

Earthquake Activity

City Distance Mag. Time & Date
Minimum magnitude displayed is 2.5.

Coastal Water Temperatures

Place Temperature

Stations

Nearby Weather Stations

Station Location Temp. Windchill Dew Point Humidity Wind Precip. Elev Updated Type
                   

Watches & Warnings

Wind Advisory
Issued: 8:21 PM CST Dec. 12, 2017 – National Weather Service

... Wind Advisory remains in effect from 6 am to 6 PM CST
Wednesday...

* timing... winds are expected to increase after daybreak
Wednesday and slowly diminish late Wednesday afternoon.

* Winds... sustained winds 25 to 35 mph with gusts to 50 mph will
be possible.

* Impacts... lightweight and high-profile vehicles will be
impacted, especially on east-west roads such as Interstate 90
and Highway 20. Unsecured objects will be blown around.

Precautionary/preparedness actions...

A Wind Advisory is issued when sustained winds are forecast to be
31 to 39 mph or gusts will range between 46 and 57 mph. Winds of
these magnitudes may cause minor property damage without extra
precautions. Motorists in high profile vehicles should use
caution until the winds subside.